KLXL

Details ICAO KLXL
Name LITTLE FALLS MORRISON CO
Region United States
Timezone America/Chicago (UTC-6.0)
Plans Departing 1
Arriving 0
Stats Elevation 1,122 ft / 342 m (AMSL)
Location 45.949234° -94.346098°
Runways 2
Magnetic Variation 1.000° E
Sunrise 2017-12-18 13:55:57 UTC / 2017-12-18 07:55:57 Local
Sunset 2017-12-18 22:35:00 UTC / 2017-12-18 16:35:00 Local
Advertisement - Login to hide

Runways

ID Width Length Bearing (true) Bearing (mag) Surface Threshold Offset Overrun Length
13 75 ft / 23 m 3,995 ft / 1,218 m 130.73° 129.73° Asphalt 0 ft / 0 m 0 ft / 0 m
18 170 ft / 52 m 3,041 ft / 927 m 181.32° 180.32° Grass 203 ft / 62 m 0 ft / 0 m
31 75 ft / 23 m 3,995 ft / 1,218 m 310.74° 309.74° Asphalt 0 ft / 0 m 0 ft / 0 m
36 170 ft / 52 m 3,041 ft / 927 m 1.31° 0.31° Grass 0 ft / 0 m 0 ft / 0 m

Map

Weather


0- 5 10 15 20 25 30 35+ Temperature / ° C

Clouds and Precipitation
Forecast for 2017-12-18 12:00 UTC. Updated 2 hours ago

Ground ~20,000 ft ~40,000 ft Winds

METAR

KLXL 181055Z AUTO 14004KT 7SM SCT065 BKN090 BKN120 M03/M06 A2975 RMK AO2

TAF

Not found

Frequencies

Unicom 122.80 MHz CTAF/UNICOM
Warning: Do not use this data for real-world aviation or navigation. No guarantee of current accuracy is given.